createdAt,value
2023-03-17T00:02:32.689Z,5.70
2023-03-17T00:05:22.555Z,5.83
2023-03-17T00:07:56.383Z,5.90
2023-03-17T00:10:29.726Z,5.20
2023-03-17T00:13:04.618Z,5.40
2023-03-17T00:15:37.743Z,5.07
2023-03-17T00:18:16.316Z,4.90
2023-03-17T00:20:50.444Z,4.47
2023-03-17T00:23:25.458Z,5.00
2023-03-17T00:25:58.695Z,4.30
2023-03-17T00:28:33.565Z,4.53
2023-03-17T00:31:15.670Z,4.80
2023-03-17T00:33:50.211Z,4.50
2023-03-17T00:36:26.077Z,4.53
2023-03-17T00:39:00.370Z,5.00
2023-03-17T00:41:33.752Z,4.63
2023-03-17T00:44:08.175Z,4.73
2023-03-17T00:46:42.248Z,4.60
2023-03-17T00:49:19.592Z,5.57
2023-03-17T00:51:53.474Z,5.60
2023-03-17T00:54:26.533Z,5.40
2023-03-17T00:56:59.681Z,5.20
2023-03-17T00:59:40.887Z,5.07
2023-03-17T01:02:14.582Z,5.10
2023-03-17T01:04:56.219Z,5.17
2023-03-17T01:07:33.115Z,6.17
2023-03-17T01:10:15.498Z,5.93
2023-03-17T01:12:48.678Z,5.37
2023-03-17T01:15:24.687Z,6.13
2023-03-17T01:17:58.438Z,6.10
2023-03-17T01:20:33.785Z,6.80
2023-03-17T01:23:07.415Z,6.27
2023-03-17T01:25:42.796Z,6.80
2023-03-17T01:28:19.027Z,6.63
2023-03-17T01:30:53.430Z,6.10
2023-03-17T01:33:26.613Z,6.00
2023-03-17T01:35:59.761Z,5.83
2023-03-17T01:38:32.931Z,6.80
2023-03-17T01:41:06.453Z,6.70
2023-03-17T01:43:39.931Z,7.00
2023-03-17T01:46:25.204Z,6.50
2023-03-17T01:49:09.450Z,7.00
2023-03-17T01:52:01.003Z,6.07
2023-03-17T01:54:42.558Z,5.77
2023-03-17T01:57:23.213Z,5.80
2023-03-17T02:00:01.792Z,5.47
2023-03-17T02:02:39.977Z,5.23
2023-03-17T02:05:16.982Z,5.90
2023-03-17T02:07:50.344Z,6.13
2023-03-17T02:10:26.437Z,6.07
2023-03-17T02:13:03.933Z,6.00
2023-03-17T02:15:40.339Z,6.27
2023-03-17T02:18:15.658Z,5.40
2023-03-17T02:21:32.927Z,5.30
2023-03-17T02:24:14.445Z,5.23
2023-03-17T02:26:49.551Z,4.37
2023-03-17T02:29:23.752Z,4.57
2023-03-17T02:31:56.788Z,4.70
2023-03-17T02:34:29.947Z,4.83
2023-03-17T02:37:04.339Z,5.40
2023-03-17T02:39:37.634Z,5.20
2023-03-17T02:42:12.691Z,5.33
2023-03-17T02:44:46.083Z,5.50
2023-03-17T02:47:19.130Z,5.50
2023-03-17T02:49:52.399Z,5.50
2023-03-17T02:52:27.997Z,5.10
2023-03-17T02:55:01.099Z,5.57
2023-03-17T02:57:34.335Z,6.63
2023-03-17T03:00:10.436Z,5.70
2023-03-17T03:02:43.519Z,6.13
2023-03-17T03:05:16.635Z,5.93
2023-03-17T03:07:51.437Z,6.87
2023-03-17T03:10:24.460Z,6.77
2023-03-17T03:12:57.446Z,6.73
2023-03-17T03:15:30.504Z,7.17
2023-03-17T03:18:03.569Z,6.53
2023-03-17T03:20:37.336Z,7.10
2023-03-17T03:23:11.932Z,6.83
2023-03-17T03:25:44.938Z,7.07
2023-03-17T03:28:18.481Z,7.17
2023-03-17T03:30:51.905Z,6.93
2023-03-17T03:33:25.018Z,7.03
2023-03-17T03:35:59.439Z,7.40
2023-03-17T03:38:34.003Z,7.60
2023-03-17T03:41:07.381Z,5.90
2023-03-17T03:43:40.781Z,7.10
2023-03-17T03:46:13.889Z,6.53
2023-03-17T03:48:46.917Z,6.47
2023-03-17T03:51:20.003Z,7.13
2023-03-17T03:53:54.408Z,6.90
2023-03-17T03:56:27.462Z,6.73
2023-03-17T03:59:01.072Z,6.73
2023-03-17T04:01:34.256Z,6.53
2023-03-17T04:04:07.338Z,6.30
2023-03-17T04:06:40.480Z,6.83
2023-03-17T04:09:14.908Z,7.47
2023-03-17T04:11:47.983Z,6.70
2023-03-17T04:14:21.060Z,6.77
2023-03-17T04:16:54.186Z,6.40
2023-03-17T04:19:27.521Z,7.37
2023-03-17T04:22:00.707Z,6.97
2023-03-17T04:24:35.727Z,7.43
2023-03-17T04:27:09.219Z,7.20
2023-03-17T04:29:42.720Z,7.57
2023-03-17T04:32:15.966Z,6.37
2023-03-17T04:34:49.070Z,6.67
2023-03-17T04:37:22.487Z,6.87
2023-03-17T04:39:56.894Z,6.23
2023-03-17T04:42:30.062Z,6.20
2023-03-17T04:45:03.388Z,5.67
2023-03-17T04:47:37.249Z,6.70
2023-03-17T04:50:12.405Z,5.60
2023-03-17T04:52:45.616Z,5.27
2023-03-17T04:55:20.801Z,5.47
2023-03-17T04:57:53.866Z,5.13
2023-03-17T05:00:26.928Z,6.07
2023-03-17T05:03:00.030Z,6.17
2023-03-17T05:05:33.159Z,5.73
2023-03-17T05:08:06.626Z,5.93
2023-03-17T05:10:41.015Z,5.90
2023-03-17T05:13:14.147Z,6.37
2023-03-17T05:15:48.904Z,6.37
2023-03-17T05:18:24.726Z,6.13
2023-03-17T05:20:57.820Z,6.00
2023-03-17T05:23:30.917Z,6.03
2023-03-17T05:26:06.444Z,6.33
2023-03-17T05:28:39.537Z,6.67
2023-03-17T05:31:12.845Z,6.80
2023-03-17T05:33:46.532Z,7.10
2023-03-17T05:36:21.164Z,7.83
2023-03-17T05:38:54.277Z,7.80
2023-03-17T05:41:29.310Z,7.87
2023-03-17T05:44:02.454Z,7.07
2023-03-17T05:46:35.651Z,7.43
2023-03-17T05:49:08.866Z,7.83
2023-03-17T05:51:41.973Z,6.87
2023-03-17T05:54:15.095Z,7.50
2023-03-17T05:56:49.741Z,7.43
2023-03-17T05:59:23.071Z,6.90
2023-03-17T06:01:56.149Z,6.90
2023-03-17T06:04:29.193Z,7.23
2023-03-17T06:07:02.321Z,7.50
2023-03-17T06:09:35.380Z,6.80
2023-03-17T06:12:10.921Z,10.83
2023-03-17T06:14:44.028Z,8.40
2023-03-17T06:17:17.103Z,7.60
2023-03-17T06:19:50.296Z,7.93
2023-03-17T06:22:23.514Z,7.57
2023-03-17T06:24:57.039Z,8.20
2023-03-17T06:27:31.599Z,8.57
2023-03-17T06:30:06.824Z,8.43
2023-03-17T06:32:40.251Z,7.77
2023-03-17T06:35:13.415Z,8.30
2023-03-17T06:37:46.729Z,7.63
2023-03-17T06:40:19.989Z,7.70
2023-03-17T06:42:54.398Z,7.63
2023-03-17T06:45:27.928Z,8.20
2023-03-17T06:48:01.652Z,7.40
2023-03-17T06:50:34.784Z,7.17
2023-03-17T06:53:08.225Z,7.03
2023-03-17T06:55:42.114Z,6.47
2023-03-17T06:58:17.031Z,5.90
2023-03-17T07:00:53.935Z,6.77
2023-03-17T07:03:28.392Z,7.43
2023-03-17T07:06:01.755Z,7.37
2023-03-17T07:08:34.872Z,7.13
2023-03-17T07:11:08.399Z,7.03
2023-03-17T07:13:42.850Z,6.87
2023-03-17T07:16:16.897Z,6.87
2023-03-17T07:18:50.628Z,7.27
2023-03-17T07:21:23.659Z,6.67
2023-03-17T07:23:57.058Z,7.43
2023-03-17T07:26:30.077Z,6.80
2023-03-17T07:29:04.457Z,6.63
2023-03-17T07:31:41.426Z,7.57
2023-03-17T07:34:14.657Z,6.67
2023-03-17T07:36:47.690Z,6.77
2023-03-17T07:39:21.004Z,6.60
2023-03-17T07:41:55.305Z,6.17
2023-03-17T07:44:30.465Z,6.23
2023-03-17T07:47:03.549Z,8.23
2023-03-17T07:49:41.642Z,7.27
2023-03-17T07:52:15.170Z,7.05
2023-03-17T07:54:48.221Z,7.70
2023-03-17T07:57:22.267Z,7.38
2023-03-17T07:59:56.771Z,6.60
2023-03-17T08:02:29.841Z,7.15
2023-03-17T08:05:03.082Z,8.45
2023-03-17T08:07:37.448Z,7.30
2023-03-17T08:10:13.923Z,6.70
2023-03-17T08:12:51.723Z,7.72
2023-03-17T08:15:26.394Z,6.75
2023-03-17T08:17:59.642Z,6.50
2023-03-17T08:20:33.694Z,6.40
2023-03-17T08:23:07.403Z,6.80
2023-03-17T08:25:40.683Z,6.65
2023-03-17T08:28:14.217Z,6.45
2023-03-17T08:30:50.672Z,6.88
2023-03-17T08:33:24.047Z,6.20
2023-03-17T08:35:57.628Z,6.00
2023-03-17T08:38:31.698Z,5.78
2023-03-17T08:41:06.736Z,5.65
2023-03-17T08:43:40.739Z,5.95
2023-03-17T08:46:18.681Z,6.07
2023-03-17T08:48:55.020Z,6.43
2023-03-17T08:51:30.755Z,5.82
2023-03-17T08:54:05.795Z,6.72
2023-03-17T08:56:40.351Z,6.75
2023-03-17T08:59:13.440Z,5.65
2023-03-17T09:01:47.975Z,6.53
2023-03-17T09:04:22.882Z,6.70
2023-03-17T09:07:03.316Z,6.28
2023-03-17T09:09:38.063Z,5.88
2023-03-17T09:12:11.608Z,5.72
2023-03-17T09:14:45.208Z,5.65
2023-03-17T09:17:20.373Z,6.00
2023-03-17T09:19:53.476Z,5.93
2023-03-17T09:22:27.072Z,5.25
2023-03-17T09:25:00.655Z,5.07
2023-03-17T09:27:33.808Z,4.35
2023-03-17T09:30:10.483Z,4.93
2023-03-17T09:32:46.069Z,4.70
2023-03-17T09:35:19.527Z,4.30
2023-03-17T09:37:52.748Z,3.50
2023-03-17T09:40:34.583Z,3.60
2023-03-17T09:43:24.859Z,3.90
2023-03-17T09:45:58.026Z,4.35
2023-03-17T09:48:46.407Z,3.70
2023-03-17T09:51:20.419Z,3.45
2023-03-17T09:54:00.550Z,3.15
2023-03-17T09:56:35.874Z,3.58
2023-03-17T09:59:30.300Z,3.20
2023-03-17T10:02:03.558Z,3.47
2023-03-17T10:04:38.308Z,3.72
2023-03-17T10:07:16.946Z,3.45
2023-03-17T10:10:00.966Z,3.28
2023-03-17T10:12:47.416Z,3.50
2023-03-17T10:15:27.840Z,3.40
2023-03-17T10:18:02.472Z,3.58
2023-03-17T10:20:50.473Z,3.13
2023-03-17T10:23:31.291Z,3.05
2023-03-17T10:26:09.968Z,3.05
2023-03-17T10:28:43.707Z,2.80
2023-03-17T10:31:19.951Z,2.72
2023-03-17T10:33:53.760Z,3.00
2023-03-17T10:36:42.449Z,3.00
2023-03-17T10:39:20.716Z,2.53
2023-03-17T10:41:58.204Z,2.88
2023-03-17T10:44:43.058Z,2.88
2023-03-17T10:47:31.617Z,2.90
2023-03-17T10:50:20.263Z,2.67
2023-03-17T10:52:59.480Z,3.03
2023-03-17T10:55:40.800Z,3.03
2023-03-17T10:58:18.686Z,2.88
2023-03-17T11:00:57.808Z,2.90
2023-03-17T11:03:34.394Z,2.65
2023-03-17T11:06:10.096Z,2.55
2023-03-17T11:08:50.114Z,2.95
2023-03-17T11:11:27.198Z,2.92
2023-03-17T11:14:04.745Z,2.85
2023-03-17T11:16:40.755Z,2.95
2023-03-17T11:19:17.407Z,2.75
2023-03-17T11:21:59.858Z,2.90
2023-03-17T11:24:41.642Z,3.05
2023-03-17T11:27:28.106Z,3.25
2023-03-17T11:30:18.708Z,2.40
2023-03-17T11:32:59.090Z,2.72
2023-03-17T11:35:44.101Z,2.50
2023-03-17T11:38:25.961Z,2.58
2023-03-17T11:41:38.822Z,2.30
2023-03-17T11:44:44.095Z,2.85
2023-03-17T11:47:40.703Z,2.70
2023-03-17T11:50:26.556Z,3.13
2023-03-17T11:53:18.727Z,2.95
2023-03-17T11:55:57.788Z,2.40
2023-03-17T11:58:37.480Z,2.42
2023-03-17T12:01:14.365Z,2.58
2023-03-17T12:03:51.707Z,2.00
2023-03-17T12:06:31.782Z,2.20
2023-03-17T12:09:20.162Z,2.40
2023-03-17T12:11:54.861Z,2.15
2023-03-17T12:14:34.525Z,2.30
2023-03-17T12:17:13.738Z,2.00
2023-03-17T12:20:05.587Z,2.10
2023-03-17T12:22:44.434Z,2.00
2023-03-17T12:25:25.654Z,1.90
2023-03-17T12:28:05.589Z,2.30
2023-03-17T12:30:48.694Z,2.15
2023-03-17T12:33:29.173Z,1.60
2023-03-17T12:36:04.909Z,2.10
2023-03-17T12:38:41.421Z,1.70
2023-03-17T12:41:44.985Z,1.60
2023-03-17T12:44:34.403Z,1.25
2023-03-17T12:47:37.866Z,2.00
2023-03-17T12:50:48.360Z,1.58
2023-03-17T12:53:29.617Z,1.95
2023-03-17T12:56:11.843Z,3.42
2023-03-17T12:58:47.618Z,2.45
2023-03-17T13:01:32.999Z,2.65
2023-03-17T13:04:18.428Z,2.20
2023-03-17T13:07:00.748Z,2.10
2023-03-17T13:10:14.090Z,2.25
2023-03-17T13:13:08.816Z,2.22
2023-03-17T13:16:00.501Z,2.00
2023-03-17T13:18:53.077Z,2.35
2023-03-17T13:21:28.800Z,1.90
2023-03-17T13:24:37.279Z,1.80
2023-03-17T13:27:14.431Z,2.53
2023-03-17T13:29:48.681Z,1.80
2023-03-17T13:32:39.695Z,2.28
2023-03-17T13:35:42.817Z,2.10
2023-03-17T13:38:52.478Z,1.80
2023-03-17T13:41:50.796Z,1.83
2023-03-17T13:44:48.211Z,1.85
2023-03-17T13:47:34.766Z,1.60
2023-03-17T13:50:14.788Z,1.73
2023-03-17T13:52:51.321Z,2.85
2023-03-17T13:55:41.277Z,1.98
2023-03-17T13:58:35.214Z,2.25
2023-03-17T14:01:15.036Z,2.25
2023-03-17T14:03:51.200Z,1.65
2023-03-17T14:06:31.279Z,1.75
2023-03-17T14:09:18.396Z,1.52
2023-03-17T14:11:53.455Z,1.88
2023-03-17T14:14:39.275Z,2.20
2023-03-17T14:17:17.817Z,2.00
2023-03-17T14:20:19.708Z,2.20
2023-03-17T14:22:56.901Z,1.85
2023-03-17T14:25:35.284Z,2.13
2023-03-17T14:28:18.421Z,1.90
2023-03-17T14:30:55.032Z,2.10
2023-03-17T14:33:30.868Z,2.28
2023-03-17T14:36:08.328Z,2.20
2023-03-17T14:38:49.042Z,2.75
2023-03-17T14:41:24.530Z,2.13
2023-03-17T14:44:01.959Z,2.30
2023-03-17T14:46:38.046Z,2.30
2023-03-17T14:49:19.880Z,2.80
2023-03-17T14:51:56.178Z,2.90
2023-03-17T14:54:33.828Z,2.80
2023-03-17T14:57:09.426Z,2.50
2023-03-17T14:59:46.281Z,2.97
2023-03-17T15:02:24.703Z,3.55
2023-03-17T15:05:04.658Z,3.40
2023-03-17T15:07:41.125Z,3.17
2023-03-17T15:10:17.601Z,3.47
2023-03-17T15:12:51.197Z,3.92
2023-03-17T15:15:30.798Z,3.70
2023-03-17T15:18:12.462Z,4.30
2023-03-17T15:20:45.878Z,4.03
2023-03-17T15:23:22.202Z,3.58
2023-03-17T15:25:57.487Z,3.80
2023-03-17T15:28:33.226Z,3.97
2023-03-17T15:31:14.522Z,3.60
2023-03-17T15:33:47.849Z,4.10
2023-03-17T15:36:32.394Z,4.78
2023-03-17T15:39:06.606Z,5.00
2023-03-17T15:41:39.777Z,5.07
2023-03-17T15:44:12.878Z,4.63
2023-03-17T15:46:47.872Z,4.82
2023-03-17T15:49:24.708Z,4.65
2023-03-17T15:51:59.037Z,4.85
2023-03-17T15:54:32.175Z,6.18
2023-03-17T15:57:06.165Z,7.30
2023-03-17T15:59:39.333Z,5.80
2023-03-17T16:02:28.527Z,5.68
2023-03-17T16:05:05.583Z,6.13
2023-03-17T16:07:38.700Z,6.05
2023-03-17T16:10:23.673Z,4.97
2023-03-17T16:12:57.702Z,5.57
2023-03-17T16:15:35.099Z,5.28
2023-03-17T16:18:16.764Z,5.00
2023-03-17T16:20:52.209Z,4.28
2023-03-17T16:23:28.256Z,5.38
2023-03-17T16:26:14.154Z,4.95
2023-03-17T16:28:49.400Z,4.70
2023-03-17T16:31:25.856Z,4.88
2023-03-17T16:34:00.672Z,4.90
2023-03-17T16:36:33.728Z,5.65
2023-03-17T16:39:10.248Z,5.60
2023-03-17T16:41:43.587Z,5.88
2023-03-17T16:44:18.339Z,5.50
2023-03-17T16:46:51.573Z,6.25
2023-03-17T16:49:27.215Z,5.90
2023-03-17T16:52:00.328Z,5.80
2023-03-17T16:54:33.542Z,5.43
2023-03-17T16:57:07.915Z,4.75
2023-03-17T16:59:41.258Z,4.97
2023-03-17T17:02:17.210Z,5.10
2023-03-17T17:04:52.338Z,5.50
2023-03-17T17:07:25.427Z,5.20
2023-03-17T17:09:58.598Z,7.22
2023-03-17T17:12:31.701Z,10.57
2023-03-17T17:15:05.501Z,7.57
2023-03-17T17:17:42.298Z,24.05
2023-03-17T17:20:21.310Z,12.48
2023-03-17T17:22:54.355Z,11.40
2023-03-17T17:25:30.007Z,9.75
2023-03-17T17:28:03.348Z,8.20
2023-03-17T17:30:36.673Z,6.50
2023-03-17T17:33:09.926Z,6.70
2023-03-17T17:35:45.394Z,21.55
2023-03-17T17:38:22.865Z,10.73
2023-03-17T17:40:58.364Z,10.98
2023-03-17T17:43:31.486Z,7.93
2023-03-17T17:46:04.745Z,6.97
2023-03-17T17:48:37.770Z,6.78
2023-03-17T17:51:12.147Z,7.80
2023-03-17T17:53:45.805Z,6.55
2023-03-17T17:56:19.477Z,7.63
2023-03-17T17:58:52.632Z,7.45
2023-03-17T18:01:25.726Z,6.18
2023-03-17T18:03:58.745Z,7.28
2023-03-17T18:06:33.473Z,6.30
2023-03-17T18:09:06.920Z,8.07
2023-03-17T18:11:41.453Z,7.43
2023-03-17T18:14:15.040Z,8.88
2023-03-17T18:16:48.261Z,6.57
2023-03-17T18:19:21.603Z,6.90
2023-03-17T18:21:56.204Z,9.30
2023-03-17T18:24:30.132Z,7.03
2023-03-17T18:27:03.832Z,6.05
2023-03-17T18:29:36.930Z,5.40
2023-03-17T18:32:11.111Z,4.30
2023-03-17T18:34:47.324Z,5.18
2023-03-17T18:37:21.929Z,4.38
2023-03-17T18:40:12.050Z,5.05
2023-03-17T18:42:47.337Z,4.80
2023-03-17T18:47:53.645Z,4.40
2023-03-17T18:50:27.282Z,4.43
2023-03-17T18:53:02.379Z,4.97
2023-03-17T18:55:35.635Z,4.75
2023-03-17T18:58:08.893Z,5.38
2023-03-17T19:00:42.185Z,4.97
2023-03-17T19:03:15.651Z,5.05
2023-03-17T19:05:49.031Z,4.57
2023-03-17T19:08:23.726Z,4.57
2023-03-17T19:10:56.772Z,5.15
2023-03-17T19:13:29.877Z,6.13
2023-03-17T19:16:03.556Z,6.18
2023-03-17T19:18:41.399Z,6.43
2023-03-17T19:21:16.870Z,5.70
2023-03-17T19:23:51.970Z,6.20
2023-03-17T19:26:25.077Z,6.22
2023-03-17T19:28:58.357Z,6.57
2023-03-17T19:31:31.454Z,6.43
2023-03-17T19:34:04.582Z,7.43
2023-03-17T19:36:39.689Z,6.32
2023-03-17T19:39:16.479Z,5.55
2023-03-17T19:41:53.160Z,5.85
2023-03-17T19:44:27.026Z,5.47
2023-03-17T19:47:04.953Z,9.38
2023-03-17T19:49:38.709Z,6.95
2023-03-17T19:52:11.900Z,7.60
2023-03-17T19:54:46.514Z,7.50
2023-03-17T19:57:20.857Z,9.00
2023-03-17T19:59:54.220Z,9.93
2023-03-17T20:02:27.317Z,6.88
2023-03-17T20:05:00.397Z,9.15
2023-03-17T20:07:33.752Z,8.52
2023-03-17T20:10:10.626Z,6.80
2023-03-17T20:12:45.685Z,5.78
2023-03-17T20:15:19.237Z,7.40
2023-03-17T20:17:52.402Z,8.10
2023-03-17T20:20:25.399Z,8.13
2023-03-17T20:22:59.022Z,12.20
2023-03-17T20:25:33.414Z,9.77
2023-03-17T20:28:06.882Z,8.68
2023-03-17T20:30:41.688Z,10.02
2023-03-17T20:33:15.256Z,9.95
2023-03-17T20:35:48.418Z,8.90
2023-03-17T20:38:21.681Z,8.30
2023-03-17T20:41:07.328Z,9.10
2023-03-17T20:43:40.626Z,8.25
2023-03-17T20:46:17.507Z,7.68
2023-03-17T20:48:52.033Z,5.45
2023-03-17T20:51:25.803Z,4.78
2023-03-17T20:54:00.670Z,5.38
2023-03-17T20:56:36.505Z,5.68
2023-03-17T20:59:09.648Z,5.72
2023-03-17T21:01:42.778Z,5.75
2023-03-17T21:04:17.246Z,5.68
2023-03-17T21:06:50.274Z,6.47
2023-03-17T21:09:23.518Z,10.10
2023-03-17T21:11:57.963Z,11.88
2023-03-17T21:14:31.090Z,7.57
2023-03-17T21:17:04.256Z,7.65
2023-03-17T21:19:37.942Z,6.75
2023-03-17T21:22:11.325Z,7.63
2023-03-17T21:24:44.537Z,6.75
2023-03-17T21:27:18.954Z,6.22
2023-03-17T21:29:52.205Z,6.18
2023-03-17T21:32:25.216Z,7.00
2023-03-17T21:34:58.384Z,6.75
2023-03-17T21:37:31.424Z,6.93
2023-03-17T21:40:07.211Z,7.38
2023-03-17T21:42:41.711Z,7.95
2023-03-17T21:45:14.897Z,6.53
2023-03-17T21:47:48.045Z,5.80
2023-03-17T21:50:21.748Z,5.55
2023-03-17T21:52:54.834Z,4.97
2023-03-17T21:55:27.833Z,5.75
2023-03-17T21:58:02.395Z,5.68
2023-03-17T22:00:44.743Z,3.90
2023-03-17T22:03:18.886Z,4.18
2023-03-17T22:05:52.624Z,4.88
2023-03-17T22:08:26.115Z,4.75
2023-03-17T22:11:00.062Z,6.00
2023-03-17T22:13:34.518Z,6.70
2023-03-17T22:16:09.156Z,5.33
2023-03-17T22:18:42.903Z,5.70
2023-03-17T22:21:16.152Z,4.93
2023-03-17T22:23:49.228Z,4.57
2023-03-17T22:26:23.440Z,5.50
2023-03-17T22:28:58.448Z,4.60
2023-03-17T22:31:31.700Z,5.47
2023-03-17T22:34:05.395Z,6.30
2023-03-17T22:36:38.555Z,6.40
2023-03-17T22:39:11.945Z,5.70
2023-03-17T22:41:45.438Z,7.07
2023-03-17T22:44:19.899Z,5.07
2023-03-17T22:46:52.968Z,5.78
2023-03-17T22:49:25.948Z,4.73
2023-03-17T22:51:58.986Z,5.20
2023-03-17T22:54:31.985Z,4.50
2023-03-17T22:57:05.675Z,5.70
2023-03-17T22:59:40.412Z,6.57
2023-03-17T23:02:13.367Z,5.90
2023-03-17T23:04:46.461Z,4.47
2023-03-17T23:07:20.249Z,4.37
2023-03-17T23:09:53.320Z,5.03
2023-03-17T23:12:28.162Z,3.90
2023-03-17T23:15:03.587Z,4.37
2023-03-17T23:17:36.631Z,5.13
2023-03-17T23:20:11.945Z,4.70
2023-03-17T23:22:45.020Z,5.27
2023-03-17T23:25:18.543Z,5.00
2023-03-17T23:27:51.610Z,7.07
2023-03-17T23:30:26.107Z,7.07
2023-03-17T23:32:59.394Z,6.43
2023-03-17T23:35:33.296Z,7.53
2023-03-17T23:38:06.633Z,8.53
2023-03-17T23:40:39.685Z,8.57
2023-03-17T23:43:13.299Z,6.73
2023-03-17T23:45:47.749Z,6.27
2023-03-17T23:48:23.394Z,5.83
2023-03-17T23:50:56.482Z,4.57
2023-03-17T23:53:29.474Z,4.10
2023-03-17T23:56:03.167Z,4.37
2023-03-17T23:58:36.472Z,4.97
